Date,TemperatureHighF,TemperatureAvgF,TemperatureLowF,DewpointHighF,DewpointAvgF,DewpointLowF,HumidityHigh,HumidityAvg,HumidityLow,PressureMaxIn,PressureMinIn,WindSpeedMaxMPH,WindSpeedAvgMPH,GustSpeedMaxMPH,PrecipitationSumIn
2013-1-1,52,47,44,51,40,29,99,77,51,30.11,29.95,6,1,6,0.22
2013-1-2,51,46,41,51,44,39,99,92,76,30.19,29.92,13,3,13,0.19
2013-1-3,47,41,31,40,37,29,98,87,66,30.26,30.13,8,2,8,0.00
2013-1-4,56,40,27,32,25,15,96,61,22,30.31,30.19,11,2,11,0.00
2013-1-5,55,40,28,30,24,18,76,53,24,30.39,30.26,6,2,7,0.01
2013-1-6,50,43,35,41,36,28,95,77,59,30.26,30.06,6,1,6,0.01
2013-1-7,52,38,31,35,32,29,95,81,46,30.40,30.17,15,2,15,0.00
2013-1-8,60,51,44,43,40,32,85,68,44,30.40,30.35,6,1,12,0.00
2013-1-9,71,49,37,52,44,35,98,84,47,30.44,30.35,4,1,4,0.00
2013-1-10,66,56,48,54,47,37,99,73,47,30.52,30.40,12,3,12,0.00
2013-1-11,54,49,42,53,45,32,99,87,51,30.44,30.15,10,2,10,0.32
2013-1-12,77,58,50,65,56,50,99,93,63,30.17,30.10,5,0,5,0.04
2013-1-13,79,62,52,66,57,51,99,85,54,30.15,30.06,10,1,10,0.02
2013-1-14,75,65,55,64,60,54,99,86,67,30.17,30.08,8,1,8,0.00
2013-1-15,64,49,46,61,49,45,99,97,85,30.22,30.05,12,5,12,0.00
2013-1-16,50,48,45,50,47,44,99,98,97,30.06,29.97,12,2,12,0.07
2013-1-17,52,45,34,51,44,33,99,98,93,30.14,29.47,27,9,27,0.86
2013-1-18,50,38,29,36,29,19,99,73,34,30.53,30.13,11,2,11,0.05
2013-1-19,58,41,26,36,27,19,90,63,24,30.50,30.16,8,1,8,0.00
2013-1-20,69,50,39,37,34,30,78,57,24,30.16,29.98,9,2,9,0.00
2013-1-21,64,47,31,40,28,18,95,54,21,30.08,29.88,11,2,11,0.00
2013-1-22,44,36,26,21,4,-10,54,28,14,30.28,29.96,14,3,14,0.00
2013-1-23,44,31,18,15,4,-9,67,34,14,30.38,30.14,9,2,9,0.00
2013-1-24,43,33,25,28,7,-9,78,35,14,30.50,29.97,22,7,22,0.00
2013-1-25,28,24,19,24,13,-4,89,64,29,30.52,30.11,7,1,7,0.00
2013-1-26,44,31,24,38,28,22,99,90,63,30.31,30.09,8,1,8,0.33
2013-1-27,45,33,27,31,27,25,99,78,51,30.58,30.38,10,1,10,0.02
2013-1-28,54,43,33,49,36,28,87,77,65,30.51,30.24,9,2,9,0.01
2013-1-29,78,60,47,59,53,44,96,77,48,30.24,30.08,13,2,13,0.00
2013-1-30,73,67,59,66,63,57,99,87,73,30.08,29.42,28,8,28,0.20
2013-1-31,66,48,32,64,30,11,94,55,18,30.03,29.49,30,5,30,0.43
2013-2-1,45,37,26,30,10,-10,65,36,12,30.38,29.91,20,4,20,0.00
2013-2-2,48,35,18,38,11,-2,88,41,15,30.40,30.04,17,3,17,0.04
2013-2-3,54,43,32,40,31,22,92,66,32,30.04,29.85,11,2,11,0.08
2013-2-4,52,38,25,30,23,15,86,56,24,30.15,29.99,7,1,7,0.00
2013-2-5,66,47,33,38,33,25,87,61,27,30.02,29.87,12,2,12,0.00
2013-2-6,69,49,32,42,28,12,96,52,13,30.28,29.97,14,2,14,0.00
2013-2-7,50,44,38,45,40,36,98,88,70,30.31,29.94,17,7,17,0.24
2013-2-8,58,47,41,48,42,29,99,85,58,30.06,29.78,19,6,19,0.32
2013-2-9,58,42,29,31,23,7,80,52,14,30.35,30.05,14,3,14,0.00
2013-2-10,56,42,27,42,23,11,87,50,18,30.49,30.20,12,3,12,0.04
2013-2-11,64,57,46,62,55,42,99,93,82,30.21,29.93,14,4,14,0.05
2013-2-12,67,55,48,54,38,20,99,59,19,30.09,29.91,10,2,10,0.00
2013-2-13,49,47,45,48,45,39,99,95,68,29.96,29.61,10,2,10,0.12
2013-2-14,54,42,33,40,34,31,99,76,44,30.07,29.83,7,1,7,0.00
2013-2-15,68,46,31,43,33,25,99,68,24,30.09,29.92,9,1,9,0.00
2013-2-16,47,38,32,38,34,26,99,87,67,29.96,29.81,11,3,11,0.24
2013-2-17,43,32,22,26,12,-3,79,48,18,30.27,29.91,16,2,16,0.09
2013-2-18,54,37,18,29,15,6,87,49,15,30.41,30.26,11,2,11,0.01
2013-2-19,48,38,33,45,31,23,94,76,61,30.26,30.03,11,2,11,0.04
2013-2-20,58,48,36,26,16,6,57,30,14,29.95,29.84,9,3,9,0.01
2013-2-21,61,44,25,30,16,7,76,36,14,30.08,29.93,14,3,14,0.00
2013-2-22,44,37,33,37,33,22,97,88,42,30.17,29.95,11,4,11,0.48
2013-2-23,45,41,37,44,40,35,99,98,97,29.95,29.65,10,2,10,0.46
2013-2-24,68,51,42,52,40,27,99,71,26,29.86,29.63,10,2,10,0.02
2013-2-25,45,40,34,31,25,20,69,56,44,30.06,29.86,17,6,17,0.00
2013-2-26,60,47,36,60,45,27,99,91,66,29.96,29.39,20,6,20,0.66
2013-2-27,63,50,39,48,42,38,99,77,42,29.63,29.47,11,3,11,0.01
2013-2-28,52,44,34,42,33,25,99,68,36,29.69,29.54,9,2,9,0.00
2013-3-1,55,42,30,34,29,25,83,61,34,29.75,29.66,11,2,11,0.01
2013-3-2,54,40,28,34,26,18,93,60,30,29.75,29.63,11,2,11,0.01
2013-3-3,52,38,26,24,18,13,68,47,23,29.81,29.67,12,3,12,0.08
2013-3-4,55,37,23,24,15,4,76,45,14,29.94,29.81,11,2,11,0.00
2013-3-5,52,44,34,46,36,21,99,78,43,29.91,29.46,11,2,11,0.28
2013-3-6,50,44,38,50,34,25,99,69,43,30.04,29.53,16,6,20,0.01
2013-3-7,56,44,34,33,29,24,78,57,35,30.25,30.04,10,4,14,0.00
2013-3-8,60,46,30,31,23,14,77,46,19,30.30,30.16,11,4,22,0.20
2013-3-9,67,49,34,32,26,16,75,47,15,30.35,30.25,9,3,13,0.07
2013-3-10,71,52,34,39,24,13,92,43,12,30.34,30.23,6,2,11,0.01
2013-3-11,71,50,39,56,40,24,91,70,38,30.26,29.98,11,3,13,0.06
2013-3-12,76,66,57,65,57,38,99,78,47,29.98,29.77,10,5,15,0.21
2013-3-13,63,54,36,40,24,12,83,34,17,30.11,29.95,9,4,14,0.07
2013-3-14,58,48,35,26,17,8,66,32,16,30.21,30.10,8,2,11,0.08
2013-3-15,67,53,27,36,26,13,81,40,19,30.21,29.93,7,3,12,0.09
2013-3-16,82,64,50,49,43,35,65,49,26,29.93,29.70,10,4,17,0.13
2013-3-17,65,53,43,55,45,39,99,76,44,30.19,29.87,13,8,18,0.06
2013-3-18,46,42,39,45,42,38,99,98,92,30.21,29.91,10,5,14,0.13
2013-3-19,72,54,42,53,34,5,99,61,12,30.03,29.84,8,3,14,0.04
2013-3-20,61,49,36,28,11,-2,65,24,13,30.15,29.81,7,3,13,0.01
2013-3-21,50,39,32,32,16,0,75,43,16,30.00,29.75,11,3,14,0.00
2013-3-22,58,44,23,23,12,4,71,29,14,30.10,29.99,6,3,16,0.00
2013-3-23,58,47,39,31,24,14,71,43,21,30.08,29.93,5,2,8,0.07
2013-3-25,52,44,38,41,26,21,99,52,33,30.16,29.92,9,4,15,0.26
2013-3-26,55,44,34,32,28,23,73,54,34,30.44,30.16,7,3,12,0.00
2013-3-27,57,44,32,32,23,10,78,47,19,30.56,30.44,8,4,13,0.04
2013-3-28,62,46,30,31,23,14,78,45,17,30.62,30.48,7,3,14,0.00
2013-3-29,65,42,30,38,26,16,88,58,16,30.66,30.19,7,1,8,0.35
2013-3-30,69,55,42,45,39,31,82,58,35,30.25,30.10,4,2,7,0.12
2013-3-31,71,58,48,59,52,44,99,82,60,30.12,29.83,8,3,11,0.19
2013-4-1,78,63,55,57,48,36,99,66,23,29.95,29.82,7,2,14,0.06
2013-4-2,67,53,41,41,29,18,71,43,17,30.17,29.95,11,4,16,0.06
2013-4-3,66,53,44,37,19,9,70,29,13,30.30,30.13,10,4,14,0.00
2013-4-4,50,44,40,43,35,21,99,74,33,30.35,29.90,14,7,27,0.63
2013-4-5,66,49,40,52,45,40,99,86,55,30.03,29.88,8,3,12,0.02
2013-4-6,70,55,42,44,33,17,99,50,17,30.29,30.02,12,5,18,0.05
2013-4-7,77,58,37,50,40,34,97,57,25,30.29,30.12,7,3,13,0.02
2013-4-8,82,63,50,60,53,49,99,72,34,30.20,30.07,7,2,11,0.05
2013-4-9,89,72,54,63,58,53,99,66,34,30.21,30.08,7,2,21,0.04
2013-4-10,91,75,61,64,61,57,95,64,33,30.13,29.97,8,3,13,0.08
2013-4-11,86,76,62,69,63,59,98,67,43,30.02,29.82,8,4,17,0.15
2013-4-12,84,73,67,73,65,51,99,78,48,29.85,29.64,9,5,16,0.31
2013-4-13,81,68,53,52,42,35,63,42,22,29.99,29.78,9,3,12,0.39
2013-4-14,81,73,66,54,46,37,63,41,21,30.07,30.03,6,3,10,0.31
2013-4-15,73,67,61,61,58,52,93,74,61,30.21,30.01,11,4,15,0.01
2013-4-16,81,68,59,65,60,56,99,80,46,30.31,30.20,7,2,9,0.00
2013-4-17,86,71,56,66,62,56,99,76,47,30.25,30.12,6,2,9,0.05
2013-4-18,83,71,59,65,62,59,99,74,48,30.22,30.06,9,4,13,0.44
2013-4-19,76,69,66,70,67,64,99,95,80,30.06,29.80,9,5,15,0.24
2013-4-20,68,58,46,65,44,31,99,64,27,30.27,29.85,8,4,15,0.18
2013-4-21,64,51,42,46,42,38,99,74,42,30.48,30.27,14,5,21,0.00
2013-4-22,64,51,38,48,41,34,95,70,42,30.47,30.25,13,8,19,0.00
2013-4-23,71,56,48,53,50,47,99,81,49,30.27,30.12,9,4,13,0.01
2013-4-24,80,67,47,58,54,46,99,67,42,30.17,30.00,8,4,15,0.00
2013-4-25,77,63,52,60,49,42,98,64,35,30.29,30.03,8,3,14,0.00
2013-4-26,77,63,51,57,44,25,99,59,18,30.43,30.28,10,3,14,0.00
2013-4-27,80,64,52,56,47,40,84,59,27,30.38,30.27,7,2,10,0.04
2013-4-28,65,60,56,58,52,45,99,77,57,30.28,30.11,6,3,10,0.37
2013-4-29,76,64,56,68,62,56,99,92,69,30.11,29.98,5,2,6,0.63
2013-4-30,70,63,58,64,60,56,99,93,73,30.18,30.00,8,3,11,0.00
2013-5-1,61,59,58,60,58,57,99,97,91,30.30,30.15,12,6,18,0.00
2013-5-2,67,60,56,60,58,54,99,92,77,30.32,30.25,12,6,16,0.00
2013-5-3,72,60,51,58,52,44,99,76,52,30.26,30.17,13,8,18,0.02
2013-5-4,68,57,50,54,50,45,94,79,58,30.20,30.07,16,9,21,0.00
2013-5-5,62,57,51,58,54,49,95,90,83,30.08,29.97,13,9,19,0.06
2013-5-6,75,62,57,68,60,55,99,94,75,30.00,29.83,10,5,19,0.69
2013-5-7,76,60,50,62,53,47,99,82,40,29.96,29.85,8,2,13,0.01
2013-5-8,77,64,52,63,57,52,99,81,51,30.03,29.92,7,2,12,0.04
2013-5-9,84,69,54,65,59,53,99,75,41,30.08,29.98,6,2,9,0.01
2013-5-10,89,74,56,66,61,56,99,68,36,30.08,29.97,7,2,12,0.00
2013-5-11,87,76,68,67,64,60,87,68,43,29.99,29.82,9,4,14,0.05
2013-5-12,79,68,58,64,52,35,97,60,35,30.03,29.81,7,3,14,0.08
2013-5-13,72,60,50,43,36,24,71,44,19,30.17,30.03,8,3,14,0.00
2013-5-14,76,60,41,48,40,30,96,53,21,30.27,30.09,6,2,11,0.01
2013-5-15,93,72,53,64,56,43,87,60,35,30.10,29.92,6,2,11,0.00
2013-5-16,92,79,63,66,61,56,93,57,33,30.01,29.91,5,2,9,0.00
2013-5-17,71,67,65,65,63,62,96,89,75,30.07,30.00,2,0,4,0.00
2013-5-18,85,72,64,72,66,60,99,83,44,30.16,30.08,6,2,6,0.21
2013-5-19,81,71,68,73,69,67,99,92,66,30.17,30.07,8,3,13,0.26
2013-5-20,80,72,68,74,70,68,99,93,78,30.14,30.04,7,3,11,0.28
2013-5-21,88,75,68,75,71,68,99,89,57,30.07,29.97,7,3,11,0.06
2013-5-22,88,76,68,72,69,65,99,80,48,30.06,29.94,10,4,13,0.00
2013-5-23,86,73,69,75,70,67,99,90,57,29.98,29.85,6,2,8,0.20
2013-5-24,76,67,54,69,54,37,99,68,32,30.19,29.82,10,4,20,0.01
2013-5-25,79,61,43,52,43,33,95,57,23,30.29,30.15,8,2,11,0.00
2013-5-26,78,64,53,53,46,40,75,53,33,30.28,30.19,5,2,9,0.00
2013-5-28,72,72,72,63,63,63,73,73,73,29.94,29.94,4,4,7,0.00
2013-5-29,89,76,61,69,64,60,99,71,44,30.02,29.93,6,3,11,0.09
2013-5-30,90,77,61,70,65,60,99,70,41,30.05,29.94,6,2,8,0.00
2013-5-31,92,79,64,72,68,63,99,71,42,30.00,29.87,6,3,9,0.00
2013-6-1,91,79,66,72,68,64,99,72,42,29.91,29.79,7,3,11,0.00
2013-6-2,91,79,68,72,68,63,99,72,41,29.84,29.67,8,4,12,0.00
2013-6-3,87,74,67,76,72,66,99,91,65,29.73,29.60,7,3,11,0.57
2013-6-4,84,74,65,71,66,61,99,79,55,29.84,29.69,11,4,15,0.00
2013-6-5,86,78,68,65,60,56,85,55,41,29.90,29.78,8,5,12,0.00
2013-6-6,79,72,67,76,69,59,98,90,63,29.89,29.61,9,4,14,0.79
2013-6-7,79,72,69,77,71,69,99,97,91,29.87,29.46,12,3,17,1.87
2013-6-8,88,76,68,76,71,68,99,88,59,30.11,29.83,6,2,9,0.07
2013-6-9,91,78,68,76,71,14,99,82,11,30.17,30.08,6,2,10,0.11
2013-6-10,86,76,72,79,74,71,99,92,69,30.12,29.93,10,4,15,0.69
2013-6-11,90,78,70,74,69,65,98,78,48,29.98,29.92,6,3,10,0.04
2013-6-12,94,81,66,77,70,65,99,74,49,30.00,29.88,5,2,9,0.00
2013-6-13,99,82,69,79,72,67,98,76,38,29.88,29.62,9,3,21,0.19
2013-6-14,85,73,63,68,61,56,94,67,42,30.02,29.74,10,4,14,0.00
2013-6-15,89,74,59,66,62,58,99,70,38,30.14,30.01,5,2,8,0.00
2013-6-16,91,77,63,70,64,56,86,65,46,30.16,30.03,7,3,11,0.06
2013-6-17,91,79,70,74,69,65,94,73,48,30.06,29.94,6,3,10,0.00
2013-6-18,88,78,69,75,72,69,99,84,63,29.98,29.77,9,4,19,1.11
2013-6-19,83,74,66,72,68,66,99,82,58,30.12,29.87,8,4,13,0.01
2013-6-20,85,74,65,68,64,56,99,72,48,30.25,30.12,9,5,12,0.00
2013-6-21,86,74,59,69,60,52,95,64,38,30.26,30.18,8,4,12,0.05
2013-6-22,82,74,70,75,71,69,98,91,74,30.21,30.12,11,5,14,0.02
2013-6-23,89,76,69,78,72,68,99,88,62,30.23,30.14,6,2,11,0.00
2013-6-24,90,78,71,79,74,70,99,88,64,30.23,30.11,8,2,11,0.00
2013-6-25,93,77,69,78,72,69,99,86,55,30.15,30.03,8,2,16,0.00
2013-6-26,93,77,69,78,72,67,99,86,58,30.06,29.92,13,3,13,0.38
2013-6-27,92,77,68,79,73,68,99,88,56,29.93,29.75,10,3,19,0.06
2013-6-28,95,80,71,78,73,70,99,81,47,29.78,29.61,10,2,19,0.64
2013-6-29,90,81,69,77,74,69,99,81,59,29.75,29.62,6,3,11,0.93
2013-6-30,89,78,72,78,74,70,99,89,64,29.88,29.74,10,4,14,0.20
2013-7-1,86,76,71,78,74,70,99,91,71,30.00,29.86,9,3,12,0.67
2013-7-2,80,74,71,77,73,70,99,98,87,30.20,30.00,8,3,11,0.43
2013-7-3,75,74,74,74,74,74,99,99,99,30.19,30.17,5,4,10,0.01
2013-7-4,91,80,73,78,73,69,99,82,49,30.29,30.20,10,4,10,0.07
2013-7-5,93,81,72,78,74,16,99,81,11,30.30,30.18,9,3,14,0.00
2013-7-6,92,80,73,77,74,15,99,81,52,30.27,30.14,7,2,11,0.00
2013-7-7,92,80,69,77,73,68,99,80,52,30.21,30.08,9,3,11,0.00
2013-7-8,89,78,72,82,75,70,98,90,68,30.19,30.12,8,2,12,0.26
2013-7-9,90,77,72,79,75,71,99,92,61,30.19,30.09,6,2,11,0.19
2013-7-10,89,78,73,82,76,72,99,93,70,30.13,29.97,6,2,9,0.33
2013-7-11,75,74,73,74,74,73,99,98,97,30.00,29.95,4,2,6,0.00
2013-7-12,78,74,71,75,72,71,99,95,86,30.03,29.88,8,2,8,0.25
2013-7-13,81,74,71,78,73,70,99,97,91,30.18,30.02,12,3,12,0.25
2013-7-14,89,77,71,80,74,70,99,91,62,30.30,30.19,8,2,8,0.61
2013-7-15,92,81,71,80,74,70,99,81,51,30.34,30.25,6,2,9,0.00
2013-7-16,98,82,69,79,73,69,99,77,45,30.30,30.19,10,1,14,0.19
2013-7-17,95,84,74,81,75,70,99,77,47,30.24,30.12,8,2,11,0.00
2013-7-18,97,84,76,81,77,72,99,80,45,30.16,30.06,5,1,7,0.00
2013-7-19,93,83,74,78,76,71,99,79,55,30.13,30.00,9,3,12,0.01
2013-7-20,93,82,75,78,75,73,96,81,56,30.06,29.94,8,4,15,0.00
2013-7-21,93,77,72,78,74,71,99,89,60,30.02,29.91,8,2,14,1.36
2013-7-22,91,79,72,79,75,71,99,87,63,29.98,29.84,5,2,8,0.01
2013-7-23,94,82,74,78,75,73,99,80,54,29.88,29.75,6,2,9,0.04
2013-7-24,98,83,71,76,73,69,99,75,43,29.86,29.74,6,2,8,0.41
2013-7-25,83,75,70,73,71,68,98,88,68,30.03,29.82,8,3,11,0.06
2013-7-26,90,77,64,70,66,62,99,74,45,30.13,30.02,7,2,10,0.00
2013-7-27,90,75,68,75,70,68,99,87,51,30.08,29.95,6,2,10,0.81
2013-7-28,91,79,70,77,72,67,99,83,48,30.03,29.93,5,2,8,0.02
2013-7-29,91,79,71,74,71,67,97,79,47,30.17,30.00,8,2,11,0.00
2013-7-30,93,78,66,72,68,63,97,73,42,30.23,30.14,7,2,11,0.00
2013-7-31,87,78,71,77,73,70,99,86,66,30.16,30.02,6,2,12,0.25
2013-8-1,72,71,71,71,70,70,98,98,96,30.04,29.95,3,1,5,0.00
2013-8-2,94,81,71,77,73,70,99,79,50,30.04,29.92,6,1,6,0.00
2013-8-3,94,81,72,78,75,72,99,85,50,30.05,29.93,7,2,7,0.48
2013-8-4,86,77,68,76,70,64,99,81,51,30.05,29.91,9,3,9,0.00
2013-8-5,88,76,65,69,65,60,99,73,44,30.12,30.03,8,3,8,0.00
2013-8-6,87,76,68,73,68,66,99,78,55,30.09,30.03,11,2,11,0.13
2013-8-7,89,78,69,73,70,68,97,78,52,30.13,30.05,7,2,7,0.00
2013-8-8,93,81,70,77,73,70,99,77,51,30.09,30.03,6,2,6,0.00
2013-8-9,96,83,74,80,76,73,99,80,50,30.09,30.01,6,2,9,0.00
2013-8-10,97,82,74,81,76,73,99,83,52,30.13,30.03,8,2,17,0.26
2013-8-11,98,83,71,79,75,71,99,79,49,30.14,30.03,4,1,7,0.00
2013-8-12,97,84,73,80,75,71,99,77,44,30.07,29.96,5,1,8,0.00
2013-8-13,95,81,73,80,76,72,99,86,56,29.99,29.80,7,2,14,0.48
2013-8-14,77,73,64,74,69,61,99,87,75,30.10,29.85,8,3,11,0.00
2013-8-15,64,63,62,61,60,58,90,88,85,30.11,30.09,4,3,6,0.00
2013-8-23,92,80,69,77,73,69,99,81,53,30.08,29.95,9,2,9,0.01
2013-8-24,85,75,66,70,63,58,96,70,45,30.32,30.08,12,6,12,0.00
2013-8-25,83,71,62,66,61,55,98,73,39,30.41,30.31,10,3,10,0.00
2013-8-26,87,70,56,66,60,55,99,74,37,30.34,30.14,5,1,5,0.00
2013-8-27,93,76,60,74,68,59,97,77,50,30.15,29.99,5,1,5,0.00
2013-8-28,89,78,68,78,74,68,99,87,64,30.02,29.91,3,0,3,0.00
2013-8-29,91,79,73,76,73,71,94,83,55,30.03,29.87,11,4,11,0.00
2013-8-30,92,77,66,72,68,64,99,78,43,30.08,29.96,7,2,11,0.11
2013-8-31,91,78,66,76,70,65,99,80,50,30.00,29.88,6,2,11,0.02
2013-9-1,96,84,71,78,74,70,99,74,49,29.93,29.79,11,3,20,0.61
2013-9-2,93,79,71,79,74,70,99,86,57,29.92,29.82,4,1,8,0.02
2013-9-3,92,78,71,82,74,69,99,88,55,29.95,29.82,5,1,13,0.34
2013-9-4,90,77,68,75,71,67,99,84,55,30.09,29.95,7,2,11,0.00
2013-9-5,93,78,67,76,68,62,99,76,38,30.12,30.04,4,1,8,0.00
2013-9-6,87,74,67,68,63,59,93,70,44,30.19,30.08,9,4,13,0.00
2013-9-7,88,74,60,67,63,59,99,72,42,30.14,29.99,4,2,8,0.00
2013-9-8,93,81,63,70,64,59,99,61,36,29.99,29.92,6,2,8,0.00
2013-9-9,91,78,64,72,68,63,99,75,48,30.17,30.00,9,2,11,0.00
2013-9-10,95,79,66,76,69,65,99,75,43,30.25,30.16,4,1,7,0.02
2013-9-11,93,81,65,74,69,64,99,69,39,30.23,30.10,5,2,8,0.01
2013-9-12,96,79,68,73,70,67,98,76,44,30.10,29.84,6,2,11,0.07
2013-9-13,90,81,69,70,61,57,94,52,40,29.90,29.76,6,3,11,0.57
2013-9-14,82,70,60,57,54,50,88,61,36,30.14,29.89,10,3,13,0.04
2013-9-15,86,70,56,64,59,54,97,72,43,30.25,30.14,6,2,13,0.00
2013-9-16,90,76,66,76,66,60,99,76,39,30.19,30.06,10,3,18,0.41
2013-9-17,80,70,63,62,58,52,86,68,40,30.33,30.20,13,7,17,0.00
2013-9-18,78,70,53,56,54,50,95,60,39,30.31,30.19,7,4,11,0.00
2013-9-19,83,73,54,64,61,53,99,67,46,30.21,30.10,5,1,8,0.00
2013-9-20,71,67,65,69,65,60,99,92,79,30.12,29.99,5,2,9,0.17
2013-9-21,81,71,66,72,69,65,99,92,72,30.00,29.75,8,3,10,0.52
2013-9-22,81,69,61,70,63,57,99,82,51,29.91,29.71,13,6,18,1.50
2013-9-23,77,64,55,58,55,52,98,76,47,30.08,29.91,7,3,11,0.00
2013-9-24,82,65,53,62,57,53,99,79,43,30.11,29.96,5,1,7,0.00
2013-9-25,77,65,53,64,59,52,99,82,56,29.97,29.88,6,1,8,0.00
2013-9-26,77,66,60,63,61,56,96,85,50,29.98,29.88,9,3,14,0.00
2013-9-27,77,65,57,63,58,55,99,78,49,30.19,30.04,11,4,11,0.01
2013-9-28,76,64,54,59,56,53,97,76,47,30.25,30.16,11,4,11,0.09
2013-9-29,76,64,52,61,55,52,99,77,45,30.17,30.04,11,3,11,0.02
2013-9-30,80,68,53,64,57,52,99,71,40,30.10,30.01,6,2,8,0.00
2013-10-1,87,68,52,65,58,52,99,76,43,30.14,30.04,4,1,8,0.00
2013-10-2,90,72,57,66,62,57,99,75,38,30.15,30.06,5,1,8,0.00
2013-10-3,89,72,58,69,63,58,99,78,43,30.16,30.08,4,1,8,0.00
2013-10-4,66,65,61,64,63,60,98,94,93,30.13,30.11,0,0,0,0.00
2013-10-5,92,76,61,74,65,61,99,74,42,30.13,30.04,5,1,5,0.00
2013-10-6,88,73,63,74,69,62,99,87,57,30.08,29.95,8,2,8,0.02
2013-10-7,76,71,65,74,70,63,98,96,92,29.99,29.87,9,3,12,0.86
2013-10-8,65,60,56,63,53,48,96,80,64,30.19,29.96,14,8,22,0.02
2013-10-9,64,59,56,58,55,51,99,85,77,30.17,30.06,11,8,18,0.04
2013-10-10,61,59,54,60,58,54,99,96,94,30.06,29.93,11,5,14,0.08
2013-10-11,71,64,59,63,61,59,99,92,74,29.98,29.90,6,3,10,0.00
2013-10-12,70,67,61,66,64,60,98,91,84,30.07,29.97,6,3,8,0.00
2013-10-13,70,65,63,66,64,62,98,96,86,30.19,30.06,8,4,12,0.12
2013-10-14,68,64,58,64,62,57,98,94,86,30.22,30.16,9,6,14,0.01
2013-10-15,75,64,54,63,59,53,99,85,63,30.19,30.05,9,4,12,0.01
2013-10-16,72,66,61,65,63,60,98,90,73,30.06,29.97,4,1,5,0.00
2013-10-17,82,68,58,68,63,58,99,86,55,29.98,29.71,6,2,11,0.00
2013-10-18,70,65,60,66,56,47,99,75,53,30.05,29.89,8,2,12,0.00
2013-10-19,70,65,61,66,62,57,97,90,81,29.98,29.84,4,1,6,0.04
2013-10-20,70,58,46,60,48,41,99,73,39,30.12,29.91,9,3,14,0.05
2013-10-21,73,55,41,55,47,41,99,79,39,30.16,30.01,5,1,9,0.00
2013-10-22,66,59,52,60,56,51,99,91,80,30.02,29.82,3,0,4,0.00
2013-10-23,73,61,48,61,49,32,99,71,30,30.01,29.70,7,3,11,0.00
2013-10-24,64,49,36,44,36,31,96,65,31,30.18,30.01,5,2,9,0.00
2013-10-25,60,49,36,39,32,22,87,56,24,30.36,30.17,9,3,16,0.00
2013-10-26,64,46,30,41,33,27,99,65,26,30.36,30.08,6,1,10,0.04
2013-10-27,73,55,42,47,42,37,96,66,33,30.13,30.04,6,1,9,0.07
2013-10-28,68,55,44,57,51,43,99,88,64,30.26,30.11,3,0,4,0.00
2013-10-29,78,60,48,61,54,48,99,84,46,30.33,30.24,4,1,6,0.00
2013-10-30,77,62,52,63,57,52,99,83,52,30.30,30.17,6,1,9,0.00
2013-10-31,78,65,54,65,58,53,99,81,49,30.21,29.96,7,2,13,0.00
2013-11-1,76,70,66,69,66,65,99,89,71,29.96,29.70,9,4,15,0.98
2013-11-2,75,63,52,63,54,44,99,74,38,29.93,29.71,8,2,8,0.11
2013-11-3,66,55,45,45,40,35,88,60,35,30.35,29.93,13,3,13,1.18
2013-11-4,60,48,40,41,35,29,85,64,33,30.54,30.35,11,4,14,0.00
2013-11-5,61,51,40,52,45,36,90,80,62,30.51,30.41,8,5,11,0.00
2013-11-6,74,59,48,58,53,47,99,83,52,30.41,30.12,7,2,11,0.00
2013-11-7,73,62,47,66,56,34,99,83,52,30.13,29.93,9,2,17,0.12
2013-11-8,62,47,35,35,30,21,87,56,22,30.32,30.09,9,3,13,0.00
2013-11-9,64,48,32,40,33,23,96,62,21,30.36,30.19,6,1,8,0.01
2013-11-10,76,56,38,44,37,27,94,54,19,30.22,30.06,7,2,11,0.02
2013-11-11,64,48,33,41,31,23,94,56,22,30.34,30.14,8,2,12,0.00
2013-11-12,65,44,35,45,34,16,96,71,34,30.39,30.05,14,4,21,0.01
2013-11-13,49,37,26,24,17,7,83,48,20,30.51,30.38,10,4,15,0.00
2013-11-14,61,40,25,32,22,14,88,56,17,30.46,30.33,6,1,9,0.00
2013-11-15,67,48,30,51,39,24,93,74,33,30.35,30.20,4,1,8,0.00
2013-11-16,75,60,52,61,56,50,99,88,57,30.26,30.19,5,2,8,0.00
2013-11-17,75,64,55,67,60,54,99,89,64,30.22,29.92,6,2,9,0.14
2013-11-18,80,68,55,69,56,30,99,68,37,29.95,29.81,8,3,14,0.05
2013-11-19,60,50,43,32,28,23,63,44,24,30.31,29.95,11,5,17,0.00
2013-11-20,56,46,39,41,34,29,86,64,45,30.43,30.30,12,6,17,0.00
2013-11-21,67,53,44,51,46,40,93,78,57,30.48,30.37,10,3,14,0.00
2013-11-22,74,62,49,63,57,48,99,86,66,30.38,30.09,6,2,8,0.01
2013-11-23,62,57,44,62,47,20,99,72,33,30.17,30.03,8,2,14,0.11
2013-11-24,49,34,25,24,8,-5,54,35,17,30.47,29.81,13,5,20,0.18
2013-11-25,46,32,20,18,9,-7,71,41,18,30.06,29.85,6,2,10,0.00
2013-11-26,67,48,37,67,41,9,99,77,31,29.85,29.06,10,5,15,0.46
2013-11-27,68,43,30,67,40,18,99,90,58,29.65,28.98,8,4,16,0.92
2013-11-28,48,33,23,26,20,13,86,61,35,29.97,29.65,7,2,13,0.00
2013-11-29,55,38,25,36,25,21,93,62,27,30.11,29.95,9,3,14,0.00
2013-11-30,53,39,31,36,30,24,87,69,48,30.11,29.84,9,4,12,0.00
2013-12-1,63,45,32,42,37,29,93,74,42,29.83,29.50,4,1,5,0.00
2013-12-2,64,48,39,48,42,38,98,81,43,29.50,29.32,4,1,6,0.00
2013-12-3,58,48,34,48,42,34,99,83,60,29.50,29.37,5,1,7,0.00
2013-12-4,65,57,51,59,53,47,98,88,78,29.61,29.49,4,1,5,0.00
2013-12-5,54,52,51,53,52,51,99,98,98,29.61,29.59,0,0,1,0.00
2013-12-6,79,71,65,65,64,62,96,80,59,30.15,30.05,14,5,14,0.00
2013-12-7,69,51,43,65,46,35,97,84,71,30.48,30.07,14,7,14,0.25
2013-12-8,43,37,34,34,33,31,97,88,66,30.50,30.34,11,6,11,0.13
2013-12-9,48,44,35,47,43,34,99,98,97,30.32,30.11,4,1,4,0.07
2013-12-10,49,45,30,49,42,26,99,91,67,30.37,29.94,8,2,11,0.38
2013-12-11,30,28,27,27,25,24,91,88,87,30.38,30.36,1,0,2,0.00
2013-12-12,48,36,26,28,20,8,86,56,23,30.44,30.30,10,3,10,0.00
2013-12-13,55,38,24,31,21,14,80,56,21,30.43,30.31,7,1,7,0.00
2013-12-14,48,43,39,46,37,25,99,80,47,30.33,29.83,9,3,9,0.50
2013-12-15,59,46,35,47,37,26,99,70,47,30.12,29.76,6,2,9,0.02
2013-12-16,59,42,30,35,31,25,85,66,36,30.22,30.11,4,1,8,0.00
2013-12-17,65,48,31,40,34,28,96,63,31,30.17,29.93,8,2,17,0.00
2013-12-18,54,42,30,37,21,11,78,47,19,30.34,30.06,9,3,16,0.00
2013-12-19,65,45,28,32,24,16,84,51,15,30.37,30.26,7,2,13,0.00
2013-12-20,69,53,39,56,44,30,91,74,52,30.29,30.17,7,1,13,0.12
2013-12-21,75,61,48,66,57,47,99,87,65,30.21,30.10,9,3,14,0.01
2013-12-22,80,70,64,67,65,62,96,83,60,30.16,30.08,12,4,16,0.14
2013-12-23,70,62,48,69,61,43,99,95,84,30.20,30.05,9,3,14,1.13
2013-12-24,50,43,31,43,31,13,93,64,43,30.48,30.16,9,5,12,0.00
2013-12-25,44,32,25,22,11,3,71,44,22,30.57,30.42,10,3,14,0.01
2013-12-26,54,38,30,35,29,22,87,70,45,30.42,30.29,5,1,7,0.01
2013-12-27,56,40,29,27,22,18,80,52,23,30.49,30.39,6,2,8,0.04
2013-12-28,63,44,26,38,28,19,92,58,20,30.44,30.20,4,1,7,0.04
2013-12-29,64,52,45,64,50,34,99,93,54,30.20,29.73,7,3,12,0.93
2013-12-30,60,47,38,49,41,36,99,82,53,30.17,29.96,5,1,10,0.01
2013-12-31,53,44,34,39,31,19,83,62,28,30.39,30.11,7,2,11,0.00
2014-1-1,54,41,32,35,28,20,85,64,29,30.44,30.19,5,1,8,0.00
2014-1-2,48,45,40,48,42,32,99,89,68,30.19,29.62,6,1,10,0.21